sensor_id;sensor_type;location;lat;lon;timestamp;temperature;humidity
22623;DHT22;11478;51.094;7.030;2023-12-22T00:01:18;4.60;99.90
22623;DHT22;11478;51.094;7.030;2023-12-22T00:03:45;4.60;99.90
22623;DHT22;11478;51.094;7.030;2023-12-22T00:06:12;4.60;99.90
22623;DHT22;11478;51.094;7.030;2023-12-22T00:08:43;4.60;99.90
22623;DHT22;11478;51.094;7.030;2023-12-22T00:11:09;4.60;99.90
22623;DHT22;11478;51.094;7.030;2023-12-22T00:13:35;4.60;99.90
22623;DHT22;11478;51.094;7.030;2023-12-22T00:16:02;4.60;99.90
22623;DHT22;11478;51.094;7.030;2023-12-22T00:18:28;4.60;99.90
22623;DHT22;11478;51.094;7.030;2023-12-22T00:20:55;4.70;99.90
22623;DHT22;11478;51.094;7.030;2023-12-22T00:23:21;4.60;99.90
22623;DHT22;11478;51.094;7.030;2023-12-22T00:25:46;4.60;99.90
22623;DHT22;11478;51.094;7.030;2023-12-22T00:28:14;4.60;99.90
22623;DHT22;11478;51.094;7.030;2023-12-22T00:30:40;4.60;99.90
22623;DHT22;11478;51.094;7.030;2023-12-22T00:33:09;4.60;99.90
22623;DHT22;11478;51.094;7.030;2023-12-22T00:35:35;4.60;99.90
22623;DHT22;11478;51.094;7.030;2023-12-22T00:38:05;4.60;99.90
22623;DHT22;11478;51.094;7.030;2023-12-22T00:40:31;4.70;99.90
22623;DHT22;11478;51.094;7.030;2023-12-22T00:42:57;4.70;99.90
22623;DHT22;11478;51.094;7.030;2023-12-22T00:45:23;4.70;99.90
22623;DHT22;11478;51.094;7.030;2023-12-22T00:47:49;4.70;99.90
22623;DHT22;11478;51.094;7.030;2023-12-22T00:50:15;4.70;99.90
22623;DHT22;11478;51.094;7.030;2023-12-22T00:52:44;4.70;99.90
22623;DHT22;11478;51.094;7.030;2023-12-22T00:55:10;4.70;99.90
22623;DHT22;11478;51.094;7.030;2023-12-22T00:57:35;4.70;99.90
22623;DHT22;11478;51.094;7.030;2023-12-22T01:00:01;4.80;99.90
22623;DHT22;11478;51.094;7.030;2023-12-22T01:02:42;4.80;99.90
22623;DHT22;11478;51.094;7.030;2023-12-22T01:05:09;4.80;99.90
22623;DHT22;11478;51.094;7.030;2023-12-22T01:07:42;4.90;99.90
22623;DHT22;11478;51.094;7.030;2023-12-22T01:10:08;4.90;99.90
22623;DHT22;11478;51.094;7.030;2023-12-22T01:12:34;5.00;99.90
22623;DHT22;11478;51.094;7.030;2023-12-22T01:15:00;4.90;99.90
22623;DHT22;11478;51.094;7.030;2023-12-22T01:17:27;4.90;99.90
22623;DHT22;11478;51.094;7.030;2023-12-22T01:19:53;4.90;99.90
22623;DHT22;11478;51.094;7.030;2023-12-22T01:22:23;4.90;99.90
22623;DHT22;11478;51.094;7.030;2023-12-22T01:24:49;4.90;99.90
22623;DHT22;11478;51.094;7.030;2023-12-22T01:27:17;4.90;99.90
22623;DHT22;11478;51.094;7.030;2023-12-22T01:29:43;4.90;99.90
22623;DHT22;11478;51.094;7.030;2023-12-22T01:32:09;4.90;99.90
22623;DHT22;11478;51.094;7.030;2023-12-22T01:34:35;4.90;99.90
22623;DHT22;11478;51.094;7.030;2023-12-22T01:37:03;4.90;99.90
22623;DHT22;11478;51.094;7.030;2023-12-22T01:39:29;4.90;99.90
22623;DHT22;11478;51.094;7.030;2023-12-22T01:41:58;4.90;99.90
22623;DHT22;11478;51.094;7.030;2023-12-22T01:44:24;4.90;99.90
22623;DHT22;11478;51.094;7.030;2023-12-22T01:46:50;4.90;99.90
22623;DHT22;11478;51.094;7.030;2023-12-22T01:49:21;5.00;99.90
22623;DHT22;11478;51.094;7.030;2023-12-22T01:51:47;5.00;99.90
22623;DHT22;11478;51.094;7.030;2023-12-22T01:54:14;5.00;99.90
22623;DHT22;11478;51.094;7.030;2023-12-22T01:56:42;5.00;99.90
22623;DHT22;11478;51.094;7.030;2023-12-22T01:59:11;5.00;99.90
22623;DHT22;11478;51.094;7.030;2023-12-22T02:01:37;5.00;99.90
22623;DHT22;11478;51.094;7.030;2023-12-22T02:04:05;5.00;99.90
22623;DHT22;11478;51.094;7.030;2023-12-22T02:06:31;5.00;99.90
22623;DHT22;11478;51.094;7.030;2023-12-22T02:09:02;5.00;99.90
22623;DHT22;11478;51.094;7.030;2023-12-22T02:11:29;5.00;99.90
22623;DHT22;11478;51.094;7.030;2023-12-22T02:13:55;5.00;99.90
22623;DHT22;11478;51.094;7.030;2023-12-22T02:19:15;5.00;99.90
22623;DHT22;11478;51.094;7.030;2023-12-22T02:22:00;5.00;99.90
22623;DHT22;11478;51.094;7.030;2023-12-22T02:24:29;5.10;99.90
22623;DHT22;11478;51.094;7.030;2023-12-22T02:29:50;5.10;99.90
22623;DHT22;11478;51.094;7.030;2023-12-22T02:32:24;5.10;99.90
22623;DHT22;11478;51.094;7.030;2023-12-22T02:34:53;5.10;99.90
22623;DHT22;11478;51.094;7.030;2023-12-22T02:37:29;5.10;99.90
22623;DHT22;11478;51.094;7.030;2023-12-22T02:39:56;5.10;99.90
22623;DHT22;11478;51.094;7.030;2023-12-22T02:42:26;5.20;99.90
22623;DHT22;11478;51.094;7.030;2023-12-22T02:44:57;5.10;99.90
22623;DHT22;11478;51.094;7.030;2023-12-22T02:47:37;5.20;99.90
22623;DHT22;11478;51.094;7.030;2023-12-22T02:50:03;5.20;99.90
22623;DHT22;11478;51.094;7.030;2023-12-22T02:52:30;5.20;99.90
22623;DHT22;11478;51.094;7.030;2023-12-22T02:54:58;5.20;99.90
22623;DHT22;11478;51.094;7.030;2023-12-22T02:57:26;5.20;99.90
22623;DHT22;11478;51.094;7.030;2023-12-22T02:59:52;5.20;99.90
22623;DHT22;11478;51.094;7.030;2023-12-22T03:02:29;5.20;99.90
22623;DHT22;11478;51.094;7.030;2023-12-22T03:04:54;5.10;99.90
22623;DHT22;11478;51.094;7.030;2023-12-22T03:07:21;5.10;99.90
22623;DHT22;11478;51.094;7.030;2023-12-22T03:09:47;5.00;99.90
22623;DHT22;11478;51.094;7.030;2023-12-22T03:12:13;5.00;99.90
22623;DHT22;11478;51.094;7.030;2023-12-22T03:14:40;4.90;99.90
22623;DHT22;11478;51.094;7.030;2023-12-22T03:17:06;4.90;99.90
22623;DHT22;11478;51.094;7.030;2023-12-22T03:19:33;4.90;99.90
22623;DHT22;11478;51.094;7.030;2023-12-22T03:21:59;4.90;99.90
22623;DHT22;11478;51.094;7.030;2023-12-22T03:24:28;4.90;99.90
22623;DHT22;11478;51.094;7.030;2023-12-22T03:26:54;4.90;99.90
22623;DHT22;11478;51.094;7.030;2023-12-22T03:29:20;4.90;99.90
22623;DHT22;11478;51.094;7.030;2023-12-22T03:31:47;4.80;99.90
22623;DHT22;11478;51.094;7.030;2023-12-22T03:34:13;4.80;99.90
22623;DHT22;11478;51.094;7.030;2023-12-22T03:36:39;4.70;99.90
22623;DHT22;11478;51.094;7.030;2023-12-22T03:39:05;4.70;99.90
22623;DHT22;11478;51.094;7.030;2023-12-22T03:41:32;4.60;99.90
22623;DHT22;11478;51.094;7.030;2023-12-22T03:43:59;4.50;99.90
22623;DHT22;11478;51.094;7.030;2023-12-22T03:46:26;4.50;99.90
22623;DHT22;11478;51.094;7.030;2023-12-22T03:48:52;4.40;99.90
22623;DHT22;11478;51.094;7.030;2023-12-22T03:51:22;4.40;99.90
22623;DHT22;11478;51.094;7.030;2023-12-22T03:53:48;4.40;99.90
22623;DHT22;11478;51.094;7.030;2023-12-22T03:56:29;4.40;99.90
22623;DHT22;11478;51.094;7.030;2023-12-22T03:58:55;4.40;99.90
22623;DHT22;11478;51.094;7.030;2023-12-22T04:01:28;4.30;99.90
22623;DHT22;11478;51.094;7.030;2023-12-22T04:03:54;4.30;99.90
22623;DHT22;11478;51.094;7.030;2023-12-22T04:06:20;4.20;99.90
22623;DHT22;11478;51.094;7.030;2023-12-22T04:08:45;4.20;99.90
22623;DHT22;11478;51.094;7.030;2023-12-22T04:11:16;4.10;99.90
22623;DHT22;11478;51.094;7.030;2023-12-22T04:13:42;4.10;99.90
22623;DHT22;11478;51.094;7.030;2023-12-22T04:16:10;4.10;99.90
22623;DHT22;11478;51.094;7.030;2023-12-22T04:18:36;4.10;99.90
22623;DHT22;11478;51.094;7.030;2023-12-22T04:21:02;4.10;99.90
22623;DHT22;11478;51.094;7.030;2023-12-22T04:23:28;4.10;99.90
22623;DHT22;11478;51.094;7.030;2023-12-22T04:26:00;4.10;99.90
22623;DHT22;11478;51.094;7.030;2023-12-22T04:28:27;4.10;99.90
22623;DHT22;11478;51.094;7.030;2023-12-22T04:30:56;4.10;99.90
22623;DHT22;11478;51.094;7.030;2023-12-22T04:33:21;4.20;99.90
22623;DHT22;11478;51.094;7.030;2023-12-22T04:35:48;4.20;99.90
22623;DHT22;11478;51.094;7.030;2023-12-22T04:38:14;4.20;99.90
22623;DHT22;11478;51.094;7.030;2023-12-22T04:40:40;4.10;99.90
22623;DHT22;11478;51.094;7.030;2023-12-22T04:43:06;4.00;99.90
22623;DHT22;11478;51.094;7.030;2023-12-22T04:45:32;3.90;99.90
22623;DHT22;11478;51.094;7.030;2023-12-22T04:47:57;3.80;99.90
22623;DHT22;11478;51.094;7.030;2023-12-22T04:50:29;3.70;99.90
22623;DHT22;11478;51.094;7.030;2023-12-22T04:52:54;3.70;99.90
22623;DHT22;11478;51.094;7.030;2023-12-22T04:55:55;3.60;99.90
22623;DHT22;11478;51.094;7.030;2023-12-22T04:58:21;3.60;99.90
22623;DHT22;11478;51.094;7.030;2023-12-22T05:00:50;3.60;99.90
22623;DHT22;11478;51.094;7.030;2023-12-22T05:03:16;3.70;99.90
22623;DHT22;11478;51.094;7.030;2023-12-22T05:05:42;3.70;99.90
22623;DHT22;11478;51.094;7.030;2023-12-22T05:08:08;3.80;99.90
22623;DHT22;11478;51.094;7.030;2023-12-22T05:10:34;3.80;99.90
22623;DHT22;11478;51.094;7.030;2023-12-22T05:13:01;3.90;99.90
22623;DHT22;11478;51.094;7.030;2023-12-22T05:15:32;4.00;99.90
22623;DHT22;11478;51.094;7.030;2023-12-22T05:17:58;4.00;99.90
22623;DHT22;11478;51.094;7.030;2023-12-22T05:20:23;4.10;99.90
22623;DHT22;11478;51.094;7.030;2023-12-22T05:22:49;4.20;99.90
22623;DHT22;11478;51.094;7.030;2023-12-22T05:25:23;4.40;99.90
22623;DHT22;11478;51.094;7.030;2023-12-22T05:27:49;4.50;99.90
22623;DHT22;11478;51.094;7.030;2023-12-22T05:30:16;4.70;99.90
22623;DHT22;11478;51.094;7.030;2023-12-22T05:32:41;4.70;99.90
22623;DHT22;11478;51.094;7.030;2023-12-22T05:35:07;4.80;99.90
22623;DHT22;11478;51.094;7.030;2023-12-22T05:37:33;4.90;99.90
22623;DHT22;11478;51.094;7.030;2023-12-22T05:40:07;5.10;99.90
22623;DHT22;11478;51.094;7.030;2023-12-22T05:42:35;5.20;99.90
22623;DHT22;11478;51.094;7.030;2023-12-22T05:45:01;5.30;99.90
22623;DHT22;11478;51.094;7.030;2023-12-22T05:47:26;5.40;99.90
22623;DHT22;11478;51.094;7.030;2023-12-22T05:49:52;5.40;99.90
22623;DHT22;11478;51.094;7.030;2023-12-22T05:52:18;5.50;99.90
22623;DHT22;11478;51.094;7.030;2023-12-22T05:54:44;5.50;99.90
22623;DHT22;11478;51.094;7.030;2023-12-22T05:57:10;5.60;99.90
22623;DHT22;11478;51.094;7.030;2023-12-22T05:59:36;5.60;99.90
22623;DHT22;11478;51.094;7.030;2023-12-22T06:02:02;5.60;99.90
22623;DHT22;11478;51.094;7.030;2023-12-22T06:04:29;5.70;99.90
22623;DHT22;11478;51.094;7.030;2023-12-22T06:06:54;5.70;99.90
22623;DHT22;11478;51.094;7.030;2023-12-22T06:09:20;5.70;99.90
22623;DHT22;11478;51.094;7.030;2023-12-22T06:11:48;5.70;99.90
22623;DHT22;11478;51.094;7.030;2023-12-22T06:14:19;5.80;99.90
22623;DHT22;11478;51.094;7.030;2023-12-22T06:16:45;5.80;99.90
22623;DHT22;11478;51.094;7.030;2023-12-22T06:19:11;5.80;99.90
22623;DHT22;11478;51.094;7.030;2023-12-22T06:21:42;5.80;99.90
22623;DHT22;11478;51.094;7.030;2023-12-22T06:24:08;5.80;99.90
22623;DHT22;11478;51.094;7.030;2023-12-22T06:26:49;5.80;99.90
22623;DHT22;11478;51.094;7.030;2023-12-22T06:29:15;5.80;99.90
22623;DHT22;11478;51.094;7.030;2023-12-22T06:31:41;5.70;99.90
22623;DHT22;11478;51.094;7.030;2023-12-22T06:34:07;5.70;99.90
22623;DHT22;11478;51.094;7.030;2023-12-22T06:36:34;5.70;99.90
22623;DHT22;11478;51.094;7.030;2023-12-22T06:39:00;5.70;99.90
22623;DHT22;11478;51.094;7.030;2023-12-22T06:41:30;5.70;99.90
22623;DHT22;11478;51.094;7.030;2023-12-22T06:43:57;5.60;99.90
22623;DHT22;11478;51.094;7.030;2023-12-22T06:46:32;5.60;99.90
22623;DHT22;11478;51.094;7.030;2023-12-22T06:48:59;5.60;99.90
22623;DHT22;11478;51.094;7.030;2023-12-22T06:51:26;5.60;99.90
22623;DHT22;11478;51.094;7.030;2023-12-22T06:53:53;5.60;99.90
22623;DHT22;11478;51.094;7.030;2023-12-22T06:56:22;5.60;99.90
22623;DHT22;11478;51.094;7.030;2023-12-22T06:58:51;5.70;99.90
22623;DHT22;11478;51.094;7.030;2023-12-22T07:01:26;5.70;99.90
22623;DHT22;11478;51.094;7.030;2023-12-22T07:03:52;5.80;99.90
22623;DHT22;11478;51.094;7.030;2023-12-22T07:06:19;5.80;99.90
22623;DHT22;11478;51.094;7.030;2023-12-22T07:11:40;5.80;99.90
22623;DHT22;11478;51.094;7.030;2023-12-22T07:14:08;5.90;99.90
22623;DHT22;11478;51.094;7.030;2023-12-22T07:16:43;6.00;99.90
22623;DHT22;11478;51.094;7.030;2023-12-22T07:19:09;6.00;99.90
22623;DHT22;11478;51.094;7.030;2023-12-22T07:21:42;6.00;99.90
22623;DHT22;11478;51.094;7.030;2023-12-22T07:24:08;6.00;99.90
22623;DHT22;11478;51.094;7.030;2023-12-22T07:26:34;6.00;99.90
22623;DHT22;11478;51.094;7.030;2023-12-22T07:29:00;6.00;99.90
22623;DHT22;11478;51.094;7.030;2023-12-22T07:31:25;6.00;99.90
22623;DHT22;11478;51.094;7.030;2023-12-22T07:33:57;5.90;99.90
22623;DHT22;11478;51.094;7.030;2023-12-22T07:36:23;6.00;99.90
22623;DHT22;11478;51.094;7.030;2023-12-22T07:38:51;6.00;99.90
22623;DHT22;11478;51.094;7.030;2023-12-22T07:41:23;6.10;99.90
22623;DHT22;11478;51.094;7.030;2023-12-22T07:43:49;6.20;99.90
22623;DHT22;11478;51.094;7.030;2023-12-22T07:46:19;6.30;99.90
22623;DHT22;11478;51.094;7.030;2023-12-22T07:48:46;6.30;99.90
22623;DHT22;11478;51.094;7.030;2023-12-22T07:51:12;6.30;99.90
22623;DHT22;11478;51.094;7.030;2023-12-22T07:53:40;6.20;99.90
22623;DHT22;11478;51.094;7.030;2023-12-22T07:56:06;6.20;99.90
22623;DHT22;11478;51.094;7.030;2023-12-22T07:58:33;6.10;99.90
22623;DHT22;11478;51.094;7.030;2023-12-22T08:00:59;6.10;99.90
22623;DHT22;11478;51.094;7.030;2023-12-22T08:03:27;6.10;99.90
22623;DHT22;11478;51.094;7.030;2023-12-22T08:05:53;6.00;99.90
22623;DHT22;11478;51.094;7.030;2023-12-22T08:08:32;6.00;99.90
22623;DHT22;11478;51.094;7.030;2023-12-22T08:10:59;6.00;99.90
22623;DHT22;11478;51.094;7.030;2023-12-22T08:13:25;6.10;99.90
22623;DHT22;11478;51.094;7.030;2023-12-22T08:15:54;6.10;99.90
22623;DHT22;11478;51.094;7.030;2023-12-22T08:18:23;6.10;99.90
22623;DHT22;11478;51.094;7.030;2023-12-22T08:20:49;6.20;99.90
22623;DHT22;11478;51.094;7.030;2023-12-22T08:23:15;6.20;99.90
22623;DHT22;11478;51.094;7.030;2023-12-22T08:25:46;6.20;99.90
22623;DHT22;11478;51.094;7.030;2023-12-22T08:28:13;6.20;99.90
22623;DHT22;11478;51.094;7.030;2023-12-22T08:30:39;6.30;99.90
22623;DHT22;11478;51.094;7.030;2023-12-22T08:33:05;6.30;99.90
22623;DHT22;11478;51.094;7.030;2023-12-22T08:35:31;6.30;99.90
22623;DHT22;11478;51.094;7.030;2023-12-22T08:37:57;6.40;99.90
22623;DHT22;11478;51.094;7.030;2023-12-22T08:40:25;6.40;99.90
22623;DHT22;11478;51.094;7.030;2023-12-22T08:42:54;6.40;99.90
22623;DHT22;11478;51.094;7.030;2023-12-22T08:45:21;6.50;99.90
22623;DHT22;11478;51.094;7.030;2023-12-22T08:47:47;6.50;99.90
22623;DHT22;11478;51.094;7.030;2023-12-22T08:50:13;6.60;99.90
22623;DHT22;11478;51.094;7.030;2023-12-22T08:53:07;6.60;99.90
22623;DHT22;11478;51.094;7.030;2023-12-22T08:55:34;6.70;99.90
22623;DHT22;11478;51.094;7.030;2023-12-22T08:58:00;6.80;99.90
22623;DHT22;11478;51.094;7.030;2023-12-22T09:00:26;6.80;99.90
22623;DHT22;11478;51.094;7.030;2023-12-22T09:02:52;6.90;99.90
22623;DHT22;11478;51.094;7.030;2023-12-22T09:05:25;6.90;99.90
22623;DHT22;11478;51.094;7.030;2023-12-22T09:08:17;6.90;99.90
22623;DHT22;11478;51.094;7.030;2023-12-22T09:10:47;7.00;99.90
22623;DHT22;11478;51.094;7.030;2023-12-22T09:13:13;7.00;99.90
22623;DHT22;11478;51.094;7.030;2023-12-22T09:15:39;7.10;99.90
22623;DHT22;11478;51.094;7.030;2023-12-22T09:18:07;7.20;99.90
22623;DHT22;11478;51.094;7.030;2023-12-22T09:20:36;7.20;99.90
22623;DHT22;11478;51.094;7.030;2023-12-22T09:23:04;7.30;99.90
22623;DHT22;11478;51.094;7.030;2023-12-22T09:25:33;7.30;99.90
22623;DHT22;11478;51.094;7.030;2023-12-22T09:27:59;7.30;99.90
22623;DHT22;11478;51.094;7.030;2023-12-22T09:30:40;7.30;99.90
22623;DHT22;11478;51.094;7.030;2023-12-22T09:33:11;7.40;99.90
22623;DHT22;11478;51.094;7.030;2023-12-22T09:35:37;7.40;99.90
22623;DHT22;11478;51.094;7.030;2023-12-22T09:38:06;7.40;99.90
22623;DHT22;11478;51.094;7.030;2023-12-22T09:40:44;7.40;99.90
22623;DHT22;11478;51.094;7.030;2023-12-22T09:43:13;7.40;99.90
22623;DHT22;11478;51.094;7.030;2023-12-22T09:45:42;7.40;99.90
22623;DHT22;11478;51.094;7.030;2023-12-22T09:51:17;7.50;99.90
22623;DHT22;11478;51.094;7.030;2023-12-22T09:53:46;7.50;99.90
22623;DHT22;11478;51.094;7.030;2023-12-22T09:56:13;7.50;99.90
22623;DHT22;11478;51.094;7.030;2023-12-22T09:58:41;7.50;99.90
22623;DHT22;11478;51.094;7.030;2023-12-22T10:01:07;7.50;99.90
22623;DHT22;11478;51.094;7.030;2023-12-22T10:06:48;7.60;99.90
22623;DHT22;11478;51.094;7.030;2023-12-22T10:09:48;7.60;99.90
22623;DHT22;11478;51.094;7.030;2023-12-22T10:12:15;7.70;99.90
22623;DHT22;11478;51.094;7.030;2023-12-22T10:14:51;7.70;99.90
22623;DHT22;11478;51.094;7.030;2023-12-22T10:17:18;7.80;99.90
22623;DHT22;11478;51.094;7.030;2023-12-22T10:19:45;7.80;99.90
22623;DHT22;11478;51.094;7.030;2023-12-22T10:22:11;7.80;99.90
22623;DHT22;11478;51.094;7.030;2023-12-22T10:24:42;7.90;99.90
22623;DHT22;11478;51.094;7.030;2023-12-22T10:27:08;7.90;99.90
22623;DHT22;11478;51.094;7.030;2023-12-22T10:29:35;7.80;99.90
22623;DHT22;11478;51.094;7.030;2023-12-22T10:32:03;7.90;99.90
22623;DHT22;11478;51.094;7.030;2023-12-22T10:34:35;7.90;99.90
22623;DHT22;11478;51.094;7.030;2023-12-22T10:37:09;7.90;99.90
22623;DHT22;11478;51.094;7.030;2023-12-22T10:39:39;7.90;99.90
22623;DHT22;11478;51.094;7.030;2023-12-22T10:42:06;7.90;99.90
22623;DHT22;11478;51.094;7.030;2023-12-22T10:44:45;7.90;99.90
22623;DHT22;11478;51.094;7.030;2023-12-22T10:47:11;8.00;99.90
22623;DHT22;11478;51.094;7.030;2023-12-22T10:49:48;8.00;99.90
22623;DHT22;11478;51.094;7.030;2023-12-22T10:52:18;8.00;99.90
22623;DHT22;11478;51.094;7.030;2023-12-22T10:55:01;8.00;99.90
22623;DHT22;11478;51.094;7.030;2023-12-22T10:57:28;8.00;99.90
22623;DHT22;11478;51.094;7.030;2023-12-22T10:59:59;8.10;99.90
22623;DHT22;11478;51.094;7.030;2023-12-22T11:02:48;8.10;99.90
22623;DHT22;11478;51.094;7.030;2023-12-22T11:05:15;8.10;99.90
22623;DHT22;11478;51.094;7.030;2023-12-22T11:07:48;8.10;99.90
22623;DHT22;11478;51.094;7.030;2023-12-22T11:10:18;8.10;99.90
22623;DHT22;11478;51.094;7.030;2023-12-22T11:12:54;8.10;99.90
22623;DHT22;11478;51.094;7.030;2023-12-22T11:15:20;8.10;99.90
22623;DHT22;11478;51.094;7.030;2023-12-22T11:17:52;8.10;99.90
22623;DHT22;11478;51.094;7.030;2023-12-22T11:20:18;8.20;99.90
22623;DHT22;11478;51.094;7.030;2023-12-22T11:22:48;8.20;99.90
22623;DHT22;11478;51.094;7.030;2023-12-22T11:25:19;8.20;99.90
22623;DHT22;11478;51.094;7.030;2023-12-22T11:27:50;8.20;99.90
22623;DHT22;11478;51.094;7.030;2023-12-22T11:30:21;8.20;99.90
22623;DHT22;11478;51.094;7.030;2023-12-22T11:32:49;8.20;99.90
22623;DHT22;11478;51.094;7.030;2023-12-22T11:35:16;8.20;99.90
22623;DHT22;11478;51.094;7.030;2023-12-22T11:37:45;8.20;99.90
22623;DHT22;11478;51.094;7.030;2023-12-22T11:40:12;8.20;99.90
22623;DHT22;11478;51.094;7.030;2023-12-22T11:42:43;8.20;99.90
22623;DHT22;11478;51.094;7.030;2023-12-22T11:45:11;8.30;99.90
22623;DHT22;11478;51.094;7.030;2023-12-22T11:47:42;8.30;99.90
22623;DHT22;11478;51.094;7.030;2023-12-22T11:50:11;8.30;99.90
22623;DHT22;11478;51.094;7.030;2023-12-22T11:52:40;8.30;99.90
22623;DHT22;11478;51.094;7.030;2023-12-22T11:55:15;8.40;99.90
22623;DHT22;11478;51.094;7.030;2023-12-22T11:57:41;8.40;99.90
22623;DHT22;11478;51.094;7.030;2023-12-22T12:00:08;8.40;99.90
22623;DHT22;11478;51.094;7.030;2023-12-22T12:02:37;8.40;99.90
22623;DHT22;11478;51.094;7.030;2023-12-22T12:05:13;8.40;99.90
22623;DHT22;11478;51.094;7.030;2023-12-22T12:07:44;8.50;99.90
22623;DHT22;11478;51.094;7.030;2023-12-22T12:10:11;8.50;99.90
22623;DHT22;11478;51.094;7.030;2023-12-22T12:13:09;8.50;99.90
22623;DHT22;11478;51.094;7.030;2023-12-22T12:15:36;8.50;99.90
22623;DHT22;11478;51.094;7.030;2023-12-22T12:18:06;8.50;99.90
22623;DHT22;11478;51.094;7.030;2023-12-22T12:20:33;8.50;99.90
22623;DHT22;11478;51.094;7.030;2023-12-22T12:23:03;8.50;99.90
22623;DHT22;11478;51.094;7.030;2023-12-22T12:25:33;8.50;99.90
22623;DHT22;11478;51.094;7.030;2023-12-22T12:28:05;8.60;99.90
22623;DHT22;11478;51.094;7.030;2023-12-22T12:30:36;8.60;99.90
22623;DHT22;11478;51.094;7.030;2023-12-22T12:33:12;8.70;99.90
22623;DHT22;11478;51.094;7.030;2023-12-22T12:35:40;8.70;99.90
22623;DHT22;11478;51.094;7.030;2023-12-22T12:38:13;8.70;99.90
22623;DHT22;11478;51.094;7.030;2023-12-22T12:40:45;8.70;99.90
22623;DHT22;11478;51.094;7.030;2023-12-22T12:43:15;8.80;99.90
22623;DHT22;11478;51.094;7.030;2023-12-22T12:45:44;8.80;99.90
22623;DHT22;11478;51.094;7.030;2023-12-22T12:48:10;8.80;99.90
22623;DHT22;11478;51.094;7.030;2023-12-22T12:50:39;8.90;99.90
22623;DHT22;11478;51.094;7.030;2023-12-22T12:53:05;8.90;99.90
22623;DHT22;11478;51.094;7.030;2023-12-22T12:55:36;9.00;99.90
22623;DHT22;11478;51.094;7.030;2023-12-22T12:58:03;9.00;99.90
22623;DHT22;11478;51.094;7.030;2023-12-22T13:00:31;9.10;99.90
22623;DHT22;11478;51.094;7.030;2023-12-22T13:03:04;9.10;99.90
22623;DHT22;11478;51.094;7.030;2023-12-22T13:05:34;9.10;99.90
22623;DHT22;11478;51.094;7.030;2023-12-22T13:08:13;9.10;99.90
22623;DHT22;11478;51.094;7.030;2023-12-22T13:10:42;9.00;99.90
22623;DHT22;11478;51.094;7.030;2023-12-22T13:13:08;9.00;99.90
22623;DHT22;11478;51.094;7.030;2023-12-22T13:15:35;9.00;99.90
22623;DHT22;11478;51.094;7.030;2023-12-22T13:18:05;9.00;99.90
22623;DHT22;11478;51.094;7.030;2023-12-22T13:20:32;8.90;99.90
22623;DHT22;11478;51.094;7.030;2023-12-22T13:22:58;8.90;99.90
22623;DHT22;11478;51.094;7.030;2023-12-22T13:25:25;8.90;99.90
22623;DHT22;11478;51.094;7.030;2023-12-22T13:27:52;8.80;99.90
22623;DHT22;11478;51.094;7.030;2023-12-22T13:30:37;8.80;99.90
22623;DHT22;11478;51.094;7.030;2023-12-22T13:33:21;8.80;99.90
22623;DHT22;11478;51.094;7.030;2023-12-22T13:35:58;8.70;99.90
22623;DHT22;11478;51.094;7.030;2023-12-22T13:38:24;8.70;99.90
22623;DHT22;11478;51.094;7.030;2023-12-22T13:41:03;8.70;99.90
22623;DHT22;11478;51.094;7.030;2023-12-22T13:43:29;8.70;99.90
22623;DHT22;11478;51.094;7.030;2023-12-22T13:45:56;8.70;99.90
22623;DHT22;11478;51.094;7.030;2023-12-22T13:48:23;8.60;99.90
22623;DHT22;11478;51.094;7.030;2023-12-22T13:51:00;8.60;99.90
22623;DHT22;11478;51.094;7.030;2023-12-22T13:53:26;8.50;99.90
22623;DHT22;11478;51.094;7.030;2023-12-22T13:55:59;8.60;99.90
22623;DHT22;11478;51.094;7.030;2023-12-22T13:58:26;8.50;99.90
22623;DHT22;11478;51.094;7.030;2023-12-22T14:00:53;8.60;99.90
22623;DHT22;11478;51.094;7.030;2023-12-22T14:03:19;8.50;99.90
22623;DHT22;11478;51.094;7.030;2023-12-22T14:05:48;8.50;99.90
22623;DHT22;11478;51.094;7.030;2023-12-22T14:08:19;8.50;99.90
22623;DHT22;11478;51.094;7.030;2023-12-22T14:10:46;8.60;99.90
22623;DHT22;11478;51.094;7.030;2023-12-22T14:13:18;8.60;99.90
22623;DHT22;11478;51.094;7.030;2023-12-22T14:15:44;8.60;99.90
22623;DHT22;11478;51.094;7.030;2023-12-22T14:18:11;8.60;99.90
22623;DHT22;11478;51.094;7.030;2023-12-22T14:20:39;8.60;99.90
22623;DHT22;11478;51.094;7.030;2023-12-22T14:23:27;8.60;99.90
22623;DHT22;11478;51.094;7.030;2023-12-22T14:25:59;8.70;99.90
22623;DHT22;11478;51.094;7.030;2023-12-22T14:28:47;8.70;99.90
22623;DHT22;11478;51.094;7.030;2023-12-22T14:31:17;8.70;99.90
22623;DHT22;11478;51.094;7.030;2023-12-22T14:33:42;8.60;99.90
22623;DHT22;11478;51.094;7.030;2023-12-22T14:36:15;8.60;99.90
22623;DHT22;11478;51.094;7.030;2023-12-22T14:38:42;8.60;99.90
22623;DHT22;11478;51.094;7.030;2023-12-22T14:41:10;8.60;99.90
22623;DHT22;11478;51.094;7.030;2023-12-22T14:43:37;8.60;99.90
22623;DHT22;11478;51.094;7.030;2023-12-22T14:46:03;8.60;99.90
22623;DHT22;11478;51.094;7.030;2023-12-22T14:48:31;8.60;99.90
22623;DHT22;11478;51.094;7.030;2023-12-22T14:50:57;8.60;99.90
22623;DHT22;11478;51.094;7.030;2023-12-22T14:53:23;8.60;99.90
22623;DHT22;11478;51.094;7.030;2023-12-22T14:55:51;8.60;99.90
22623;DHT22;11478;51.094;7.030;2023-12-22T14:58:18;8.60;99.90
22623;DHT22;11478;51.094;7.030;2023-12-22T15:00:44;8.50;99.90
22623;DHT22;11478;51.094;7.030;2023-12-22T15:03:11;8.50;99.90
22623;DHT22;11478;51.094;7.030;2023-12-22T15:05:37;8.50;99.90
22623;DHT22;11478;51.094;7.030;2023-12-22T15:08:03;8.50;99.90
22623;DHT22;11478;51.094;7.030;2023-12-22T15:10:32;8.50;99.90
22623;DHT22;11478;51.094;7.030;2023-12-22T15:12:57;8.50;99.90
22623;DHT22;11478;51.094;7.030;2023-12-22T15:15:23;8.50;99.90
22623;DHT22;11478;51.094;7.030;2023-12-22T15:17:50;8.50;99.90
22623;DHT22;11478;51.094;7.030;2023-12-22T15:20:16;8.50;99.90
22623;DHT22;11478;51.094;7.030;2023-12-22T15:22:43;8.50;99.90
22623;DHT22;11478;51.094;7.030;2023-12-22T15:25:09;8.50;99.90
22623;DHT22;11478;51.094;7.030;2023-12-22T15:27:35;8.50;99.90
22623;DHT22;11478;51.094;7.030;2023-12-22T15:30:03;8.50;99.90
22623;DHT22;11478;51.094;7.030;2023-12-22T15:32:49;8.50;99.90
22623;DHT22;11478;51.094;7.030;2023-12-22T15:35:15;8.50;99.90
22623;DHT22;11478;51.094;7.030;2023-12-22T15:37:41;8.50;99.90
22623;DHT22;11478;51.094;7.030;2023-12-22T15:40:07;8.50;99.90
22623;DHT22;11478;51.094;7.030;2023-12-22T15:42:35;8.50;99.90
22623;DHT22;11478;51.094;7.030;2023-12-22T15:45:01;8.40;99.90
22623;DHT22;11478;51.094;7.030;2023-12-22T15:47:29;8.50;99.90
22623;DHT22;11478;51.094;7.030;2023-12-22T15:49:55;8.50;99.90
22623;DHT22;11478;51.094;7.030;2023-12-22T15:52:26;8.50;99.90
22623;DHT22;11478;51.094;7.030;2023-12-22T15:54:55;8.50;99.90
22623;DHT22;11478;51.094;7.030;2023-12-22T15:57:41;8.50;99.90
22623;DHT22;11478;51.094;7.030;2023-12-22T16:00:07;8.50;99.90
22623;DHT22;11478;51.094;7.030;2023-12-22T16:02:39;8.60;99.90
22623;DHT22;11478;51.094;7.030;2023-12-22T16:05:05;8.60;99.90
22623;DHT22;11478;51.094;7.030;2023-12-22T16:07:38;8.60;99.90
22623;DHT22;11478;51.094;7.030;2023-12-22T16:10:07;8.60;99.90